sensor_id;sensor_type;location;lat;lon;timestamp;pressure;altitude;pressure_sealevel;temperature;humidity
6020;BME280;3038;51.122;6.840;2022-11-09T00:02:13;100418.66;;;15.28;69.79
6020;BME280;3038;51.122;6.840;2022-11-09T00:04:38;100417.03;;;15.27;69.80
6020;BME280;3038;51.122;6.840;2022-11-09T00:07:03;100412.91;;;15.24;69.48
6020;BME280;3038;51.122;6.840;2022-11-09T00:09:29;100416.63;;;15.23;69.97
6020;BME280;3038;51.122;6.840;2022-11-09T00:11:54;100415.34;;;15.19;70.25
6020;BME280;3038;51.122;6.840;2022-11-09T00:14:19;100415.75;;;15.16;70.27
6020;BME280;3038;51.122;6.840;2022-11-09T00:16:45;100416.34;;;15.11;70.12
6020;BME280;3038;51.122;6.840;2022-11-09T00:19:10;100416.53;;;15.10;70.26
6020;BME280;3038;51.122;6.840;2022-11-09T00:21:37;100426.41;;;15.09;70.29
6020;BME280;3038;51.122;6.840;2022-11-09T00:24:02;100427.81;;;15.05;69.93
6020;BME280;3038;51.122;6.840;2022-11-09T00:26:28;100422.28;;;15.07;70.31
6020;BME280;3038;51.122;6.840;2022-11-09T00:28:53;100409.94;;;15.06;70.04
6020;BME280;3038;51.122;6.840;2022-11-09T00:31:20;100413.63;;;15.05;70.27
6020;BME280;3038;51.122;6.840;2022-11-09T00:33:49;100404.13;;;15.02;70.30
6020;BME280;3038;51.122;6.840;2022-11-09T00:36:16;100423.25;;;14.99;70.52
6020;BME280;3038;51.122;6.840;2022-11-09T00:38:41;100418.09;;;14.98;70.31
6020;BME280;3038;51.122;6.840;2022-11-09T00:41:11;100424.09;;;15.00;70.47
6020;BME280;3038;51.122;6.840;2022-11-09T00:43:36;100416.69;;;15.02;70.29
6020;BME280;3038;51.122;6.840;2022-11-09T00:46:02;100406.56;;;14.97;70.33
6020;BME280;3038;51.122;6.840;2022-11-09T00:48:27;100406.34;;;14.92;70.68
6020;BME280;3038;51.122;6.840;2022-11-09T00:50:55;100403.22;;;14.88;70.63
6020;BME280;3038;51.122;6.840;2022-11-09T00:53:21;100411.41;;;14.80;70.85
6020;BME280;3038;51.122;6.840;2022-11-09T00:55:57;100416.53;;;14.75;71.29
6020;BME280;3038;51.122;6.840;2022-11-09T00:58:23;100413.41;;;14.72;71.10
6020;BME280;3038;51.122;6.840;2022-11-09T01:00:49;100406.81;;;14.74;70.97
6020;BME280;3038;51.122;6.840;2022-11-09T01:03:14;100407.22;;;14.71;71.17
6020;BME280;3038;51.122;6.840;2022-11-09T01:05:39;100408.88;;;14.72;71.20
6020;BME280;3038;51.122;6.840;2022-11-09T01:08:05;100409.25;;;14.69;71.27
6020;BME280;3038;51.122;6.840;2022-11-09T01:10:31;100418.31;;;14.68;71.08
6020;BME280;3038;51.122;6.840;2022-11-09T01:12:57;100414.81;;;14.68;71.06
6020;BME280;3038;51.122;6.840;2022-11-09T01:15:22;100418.72;;;14.65;71.03
6020;BME280;3038;51.122;6.840;2022-11-09T01:17:47;100423.41;;;14.63;71.25
6020;BME280;3038;51.122;6.840;2022-11-09T01:20:14;100408.03;;;14.65;71.12
6020;BME280;3038;51.122;6.840;2022-11-09T01:22:39;100420.84;;;14.76;70.26
6020;BME280;3038;51.122;6.840;2022-11-09T01:25:05;100430.97;;;14.87;70.09
6020;BME280;3038;51.122;6.840;2022-11-09T01:27:31;100432.94;;;15.00;69.35
6020;BME280;3038;51.122;6.840;2022-11-09T01:29:57;100436.66;;;15.06;69.26
6020;BME280;3038;51.122;6.840;2022-11-09T01:32:22;100439.94;;;15.08;68.88
6020;BME280;3038;51.122;6.840;2022-11-09T01:34:47;100437.53;;;15.13;68.37
6020;BME280;3038;51.122;6.840;2022-11-09T01:37:13;100423.97;;;15.14;68.29
6020;BME280;3038;51.122;6.840;2022-11-09T01:39:38;100436.75;;;15.19;68.11
6020;BME280;3038;51.122;6.840;2022-11-09T01:42:03;100448.06;;;15.21;67.87
6020;BME280;3038;51.122;6.840;2022-11-09T01:44:29;100437.56;;;15.20;67.67
6020;BME280;3038;51.122;6.840;2022-11-09T01:47:00;100442.09;;;15.19;67.57
6020;BME280;3038;51.122;6.840;2022-11-09T01:49:42;100435.06;;;15.18;67.48
6020;BME280;3038;51.122;6.840;2022-11-09T01:52:24;100440.69;;;15.23;67.44
6020;BME280;3038;51.122;6.840;2022-11-09T01:54:59;100426.47;;;15.23;67.37
6020;BME280;3038;51.122;6.840;2022-11-09T01:57:56;100430.81;;;15.24;67.09
6020;BME280;3038;51.122;6.840;2022-11-09T02:00:24;100423.63;;;15.24;67.33
6020;BME280;3038;51.122;6.840;2022-11-09T02:03:00;100432.25;;;15.26;67.33
6020;BME280;3038;51.122;6.840;2022-11-09T02:05:30;100425.88;;;15.27;67.77
6020;BME280;3038;51.122;6.840;2022-11-09T02:07:58;100431.44;;;15.26;67.44
6020;BME280;3038;51.122;6.840;2022-11-09T02:10:30;100424.88;;;15.28;67.51
6020;BME280;3038;51.122;6.840;2022-11-09T02:12:58;100421.16;;;15.29;67.60
6020;BME280;3038;51.122;6.840;2022-11-09T02:15:24;100416.19;;;15.26;67.45
6020;BME280;3038;51.122;6.840;2022-11-09T02:17:53;100423.41;;;15.26;67.25
6020;BME280;3038;51.122;6.840;2022-11-09T02:20:21;100423.63;;;15.24;67.13
6020;BME280;3038;51.122;6.840;2022-11-09T02:22:47;100425.25;;;15.25;67.34
6020;BME280;3038;51.122;6.840;2022-11-09T02:25:13;100423.63;;;15.24;67.38
6020;BME280;3038;51.122;6.840;2022-11-09T02:27:40;100426.47;;;15.23;67.06
6020;BME280;3038;51.122;6.840;2022-11-09T02:30:08;100429.34;;;15.21;67.25
6020;BME280;3038;51.122;6.840;2022-11-09T02:32:33;100425.47;;;15.24;67.23
6020;BME280;3038;51.122;6.840;2022-11-09T02:34:59;100427.91;;;15.19;66.67
6020;BME280;3038;51.122;6.840;2022-11-09T02:37:36;100435.53;;;15.22;66.84
6020;BME280;3038;51.122;6.840;2022-11-09T02:40:06;100427.94;;;15.25;66.92
6020;BME280;3038;51.122;6.840;2022-11-09T02:42:33;100428.31;;;15.22;67.14
6020;BME280;3038;51.122;6.840;2022-11-09T02:44:59;100424.81;;;15.22;67.26
6020;BME280;3038;51.122;6.840;2022-11-09T02:47:25;100434.09;;;15.19;67.18
6020;BME280;3038;51.122;6.840;2022-11-09T02:49:50;100428.72;;;15.19;66.88
6020;BME280;3038;51.122;6.840;2022-11-09T02:52:16;100422.72;;;15.17;66.96
6020;BME280;3038;51.122;6.840;2022-11-09T02:54:42;100424.16;;;15.13;66.91
6020;BME280;3038;51.122;6.840;2022-11-09T02:57:08;100430.53;;;15.12;67.19
6020;BME280;3038;51.122;6.840;2022-11-09T02:59:33;100438.09;;;15.08;67.09
6020;BME280;3038;51.122;6.840;2022-11-09T03:01:59;100438.97;;;15.09;67.03
6020;BME280;3038;51.122;6.840;2022-11-09T03:04:24;100434.22;;;15.11;67.16
6020;BME280;3038;51.122;6.840;2022-11-09T03:06:49;100420.28;;;15.15;67.01
6020;BME280;3038;51.122;6.840;2022-11-09T03:09:15;100422.34;;;15.20;66.95
6020;BME280;3038;51.122;6.840;2022-11-09T03:11:41;100416.63;;;15.23;66.59
6020;BME280;3038;51.122;6.840;2022-11-09T03:14:07;100421.75;;;15.25;66.59
6020;BME280;3038;51.122;6.840;2022-11-09T03:16:36;100420.13;;;15.30;66.26
6020;BME280;3038;51.122;6.840;2022-11-09T03:19:02;100424.06;;;15.34;66.38
6020;BME280;3038;51.122;6.840;2022-11-09T03:21:28;100432.53;;;15.38;66.59
6020;BME280;3038;51.122;6.840;2022-11-09T03:23:54;100426.97;;;15.39;66.32
6020;BME280;3038;51.122;6.840;2022-11-09T03:26:20;100424.31;;;15.39;66.48
6020;BME280;3038;51.122;6.840;2022-11-09T03:28:45;100431.75;;;15.44;66.68
6020;BME280;3038;51.122;6.840;2022-11-09T03:31:11;100420.00;;;15.45;66.23
6020;BME280;3038;51.122;6.840;2022-11-09T03:33:36;100426.19;;;15.46;66.38
6020;BME280;3038;51.122;6.840;2022-11-09T03:36:02;100426.19;;;15.46;66.48
6020;BME280;3038;51.122;6.840;2022-11-09T03:38:27;100440.59;;;15.45;66.76
6020;BME280;3038;51.122;6.840;2022-11-09T03:40:53;100434.56;;;15.36;67.15
6020;BME280;3038;51.122;6.840;2022-11-09T03:43:18;100440.94;;;15.28;67.77
6020;BME280;3038;51.122;6.840;2022-11-09T03:45:45;100455.28;;;15.27;67.79
6020;BME280;3038;51.122;6.840;2022-11-09T03:48:11;100450.34;;;15.24;67.63
6020;BME280;3038;51.122;6.840;2022-11-09T03:50:36;100439.66;;;15.24;68.05
6020;BME280;3038;51.122;6.840;2022-11-09T03:53:05;100445.25;;;15.29;67.64
6020;BME280;3038;51.122;6.840;2022-11-09T03:55:31;100444.22;;;15.30;67.84
6020;BME280;3038;51.122;6.840;2022-11-09T03:57:56;100447.28;;;15.27;67.78
6020;BME280;3038;51.122;6.840;2022-11-09T04:00:22;100437.81;;;15.25;68.07
6020;BME280;3038;51.122;6.840;2022-11-09T04:02:48;100439.25;;;15.27;67.45
6020;BME280;3038;51.122;6.840;2022-11-09T04:05:13;100447.28;;;15.27;67.38
6020;BME280;3038;51.122;6.840;2022-11-09T04:07:39;100455.75;;;15.31;67.27
6020;BME280;3038;51.122;6.840;2022-11-09T04:10:06;100465.63;;;15.30;67.38
6020;BME280;3038;51.122;6.840;2022-11-09T04:12:31;100473.88;;;15.35;67.66
6020;BME280;3038;51.122;6.840;2022-11-09T04:14:57;100457.00;;;15.35;67.42
6020;BME280;3038;51.122;6.840;2022-11-09T04:17:22;100459.28;;;15.38;68.19
6020;BME280;3038;51.122;6.840;2022-11-09T04:19:48;100460.28;;;15.37;67.38
6020;BME280;3038;51.122;6.840;2022-11-09T04:22:13;100462.78;;;15.38;67.41
6020;BME280;3038;51.122;6.840;2022-11-09T04:24:38;100457.44;;;15.38;67.14
6020;BME280;3038;51.122;6.840;2022-11-09T04:27:04;100459.09;;;15.39;67.18
6020;BME280;3038;51.122;6.840;2022-11-09T04:29:29;100456.19;;;15.41;66.91
6020;BME280;3038;51.122;6.840;2022-11-09T04:31:54;100458.06;;;15.40;66.95
6020;BME280;3038;51.122;6.840;2022-11-09T04:34:20;100462.38;;;15.41;66.93
6020;BME280;3038;51.122;6.840;2022-11-09T04:36:45;100463.59;;;15.39;67.28
6020;BME280;3038;51.122;6.840;2022-11-09T04:39:11;100454.13;;;15.36;67.38
6020;BME280;3038;51.122;6.840;2022-11-09T04:41:36;100466.28;;;15.39;66.87
6020;BME280;3038;51.122;6.840;2022-11-09T04:44:02;100466.91;;;15.41;66.73
6020;BME280;3038;51.122;6.840;2022-11-09T04:46:27;100465.25;;;15.40;66.95
6020;BME280;3038;51.122;6.840;2022-11-09T04:48:53;100493.22;;;15.37;67.25
6020;BME280;3038;51.122;6.840;2022-11-09T04:51:18;100486.22;;;15.36;67.13
6020;BME280;3038;51.122;6.840;2022-11-09T04:53:43;100486.22;;;15.36;67.28
6020;BME280;3038;51.122;6.840;2022-11-09T04:56:09;100494.00;;;15.31;67.62
6020;BME280;3038;51.122;6.840;2022-11-09T04:58:35;100492.94;;;15.26;68.08
6020;BME280;3038;51.122;6.840;2022-11-09T05:01:06;100489.00;;;15.22;68.39
6020;BME280;3038;51.122;6.840;2022-11-09T05:03:32;100498.03;;;15.14;69.43
6020;BME280;3038;51.122;6.840;2022-11-09T05:05:58;100499.09;;;14.91;70.40
6020;BME280;3038;51.122;6.840;2022-11-09T05:08:23;100495.53;;;14.63;71.61
6020;BME280;3038;51.122;6.840;2022-11-09T05:10:49;100502.25;;;14.37;72.28
6020;BME280;3038;51.122;6.840;2022-11-09T05:13:14;100501.09;;;14.25;73.94
6020;BME280;3038;51.122;6.840;2022-11-09T05:15:40;100500.47;;;14.23;73.87
6020;BME280;3038;51.122;6.840;2022-11-09T05:18:06;100503.75;;;14.25;73.98
6020;BME280;3038;51.122;6.840;2022-11-09T05:20:32;100500.53;;;14.30;73.67
6020;BME280;3038;51.122;6.840;2022-11-09T05:22:58;100502.25;;;14.37;72.52
6020;BME280;3038;51.122;6.840;2022-11-09T05:25:44;100506.84;;;14.44;72.41
6020;BME280;3038;51.122;6.840;2022-11-09T05:28:09;100508.97;;;14.48;71.12
6020;BME280;3038;51.122;6.840;2022-11-09T05:30:35;100509.13;;;14.47;70.40
6020;BME280;3038;51.122;6.840;2022-11-09T05:33:00;100513.31;;;14.34;71.50
6020;BME280;3038;51.122;6.840;2022-11-09T05:35:26;100503.13;;;14.23;71.77
6020;BME280;3038;51.122;6.840;2022-11-09T05:37:51;100501.59;;;14.14;71.97
6020;BME280;3038;51.122;6.840;2022-11-09T05:40:17;100490.59;;;13.87;73.73
6020;BME280;3038;51.122;6.840;2022-11-09T05:42:44;100501.84;;;13.68;76.01
6020;BME280;3038;51.122;6.840;2022-11-09T05:45:12;100501.03;;;13.53;77.50
6020;BME280;3038;51.122;6.840;2022-11-09T05:47:40;100497.06;;;13.49;77.53
6020;BME280;3038;51.122;6.840;2022-11-09T05:50:07;100487.34;;;13.56;77.27
6020;BME280;3038;51.122;6.840;2022-11-09T05:52:33;100494.03;;;13.67;76.82
6020;BME280;3038;51.122;6.840;2022-11-09T05:54:59;100499.75;;;13.78;76.37
6020;BME280;3038;51.122;6.840;2022-11-09T05:57:25;100504.41;;;13.91;75.92
6020;BME280;3038;51.122;6.840;2022-11-09T05:59:51;100493.63;;;13.99;73.66
6020;BME280;3038;51.122;6.840;2022-11-09T06:02:16;100497.56;;;14.03;72.62
6020;BME280;3038;51.122;6.840;2022-11-09T06:04:41;100489.56;;;14.03;72.25
6020;BME280;3038;51.122;6.840;2022-11-09T06:07:07;100489.72;;;14.02;72.45
6020;BME280;3038;51.122;6.840;2022-11-09T06:09:32;100486.44;;;14.00;72.39
6020;BME280;3038;51.122;6.840;2022-11-09T06:11:58;100494.19;;;13.95;73.00
6020;BME280;3038;51.122;6.840;2022-11-09T06:14:23;100491.72;;;13.93;73.60
6020;BME280;3038;51.122;6.840;2022-11-09T06:16:48;100504.13;;;13.86;74.43
6020;BME280;3038;51.122;6.840;2022-11-09T06:19:14;100501.41;;;13.79;75.31
6020;BME280;3038;51.122;6.840;2022-11-09T06:21:39;100500.84;;;13.69;76.37
6020;BME280;3038;51.122;6.840;2022-11-09T06:24:05;100503.63;;;13.61;77.31
6020;BME280;3038;51.122;6.840;2022-11-09T06:26:30;100501.31;;;13.58;78.15
6020;BME280;3038;51.122;6.840;2022-11-09T06:28:56;100503.53;;;13.54;78.71
6020;BME280;3038;51.122;6.840;2022-11-09T06:31:21;100497.06;;;13.49;78.83
6020;BME280;3038;51.122;6.840;2022-11-09T06:33:46;100498.75;;;13.50;78.90
6020;BME280;3038;51.122;6.840;2022-11-09T06:36:12;100502.03;;;13.52;79.09
6020;BME280;3038;51.122;6.840;2022-11-09T06:38:38;100503.34;;;13.56;78.73
6020;BME280;3038;51.122;6.840;2022-11-09T06:41:03;100499.66;;;13.57;79.11
6020;BME280;3038;51.122;6.840;2022-11-09T06:43:28;100503.53;;;13.54;78.37
6020;BME280;3038;51.122;6.840;2022-11-09T06:45:54;100517.22;;;13.51;78.18
6020;BME280;3038;51.122;6.840;2022-11-09T06:48:20;100520.25;;;13.48;77.79
6020;BME280;3038;51.122;6.840;2022-11-09T06:50:46;100519.44;;;13.48;77.48
6020;BME280;3038;51.122;6.840;2022-11-09T06:53:13;100526.72;;;13.54;77.37
6020;BME280;3038;51.122;6.840;2022-11-09T06:55:39;100534.13;;;13.58;76.85
6020;BME280;3038;51.122;6.840;2022-11-09T06:58:10;100535.44;;;13.62;76.86
6020;BME280;3038;51.122;6.840;2022-11-09T07:00:37;100549.03;;;13.68;77.11
6020;BME280;3038;51.122;6.840;2022-11-09T07:03:02;100547.50;;;13.73;76.77
6020;BME280;3038;51.122;6.840;2022-11-09T07:05:28;100554.66;;;13.73;77.02
6020;BME280;3038;51.122;6.840;2022-11-09T07:07:54;100558.53;;;13.70;76.59
6020;BME280;3038;51.122;6.840;2022-11-09T07:10:19;100557.72;;;13.70;76.96
6020;BME280;3038;51.122;6.840;2022-11-09T07:12:44;100553.66;;;13.74;76.43
6020;BME280;3038;51.122;6.840;2022-11-09T07:15:10;100552.19;;;13.71;76.59
6020;BME280;3038;51.122;6.840;2022-11-09T07:17:36;100560.72;;;13.67;76.81
6020;BME280;3038;51.122;6.840;2022-11-09T07:20:06;100556.59;;;13.64;76.74
6020;BME280;3038;51.122;6.840;2022-11-09T07:22:32;100569.47;;;13.60;76.60
6020;BME280;3038;51.122;6.840;2022-11-09T07:25:04;100571.69;;;13.57;76.93
6020;BME280;3038;51.122;6.840;2022-11-09T07:27:30;100576.72;;;13.52;76.95
6020;BME280;3038;51.122;6.840;2022-11-09T07:29:55;100573.03;;;13.53;77.46
6020;BME280;3038;51.122;6.840;2022-11-09T07:32:20;100574.25;;;13.50;77.10
6020;BME280;3038;51.122;6.840;2022-11-09T07:34:46;100570.00;;;13.41;77.90
6020;BME280;3038;51.122;6.840;2022-11-09T07:37:12;100573.97;;;13.30;78.00
6020;BME280;3038;51.122;6.840;2022-11-09T07:39:37;100568.34;;;13.25;78.88
6020;BME280;3038;51.122;6.840;2022-11-09T07:42:03;100568.50;;;13.24;78.70
6020;BME280;3038;51.122;6.840;2022-11-09T07:44:28;100575.00;;;13.21;78.98
6020;BME280;3038;51.122;6.840;2022-11-09T07:46:53;100575.00;;;13.21;78.98
6020;BME280;3038;51.122;6.840;2022-11-09T07:49:19;100580.34;;;13.21;78.93
6020;BME280;3038;51.122;6.840;2022-11-09T07:51:44;100583.00;;;13.21;79.15
6020;BME280;3038;51.122;6.840;2022-11-09T07:54:10;100585.50;;;13.23;79.28
6020;BME280;3038;51.122;6.840;2022-11-09T07:56:36;100589.00;;;13.23;78.79
6020;BME280;3038;51.122;6.840;2022-11-09T07:59:02;100598.94;;;13.29;78.84
6020;BME280;3038;51.122;6.840;2022-11-09T08:01:28;100593.72;;;13.36;78.65
6020;BME280;3038;51.122;6.840;2022-11-09T08:03:54;100592.16;;;13.42;78.45
6020;BME280;3038;51.122;6.840;2022-11-09T08:06:19;100595.13;;;13.47;78.47
6020;BME280;3038;51.122;6.840;2022-11-09T08:08:45;100589.88;;;13.53;78.43
6020;BME280;3038;51.122;6.840;2022-11-09T08:11:11;100590.81;;;13.60;77.99
6020;BME280;3038;51.122;6.840;2022-11-09T08:13:36;100592.75;;;13.67;77.90
6020;BME280;3038;51.122;6.840;2022-11-09T08:16:02;100595.53;;;13.73;77.51
6020;BME280;3038;51.122;6.840;2022-11-09T08:18:28;100594.78;;;13.79;76.87
6020;BME280;3038;51.122;6.840;2022-11-09T08:20:53;100595.34;;;13.89;76.22
6020;BME280;3038;51.122;6.840;2022-11-09T08:23:19;100601.22;;;14.00;75.95
6020;BME280;3038;51.122;6.840;2022-11-09T08:25:46;100598.81;;;14.05;75.23
6020;BME280;3038;51.122;6.840;2022-11-09T08:28:12;100598.72;;;14.13;74.84
6020;BME280;3038;51.122;6.840;2022-11-09T08:30:39;100605.63;;;14.22;74.34
6020;BME280;3038;51.122;6.840;2022-11-09T08:33:04;100599.81;;;14.33;73.47
6020;BME280;3038;51.122;6.840;2022-11-09T08:35:30;100603.19;;;14.42;73.22
6020;BME280;3038;51.122;6.840;2022-11-09T08:38:01;100601.28;;;14.51;72.65
6020;BME280;3038;51.122;6.840;2022-11-09T08:40:28;100604.84;;;14.58;72.69
6020;BME280;3038;51.122;6.840;2022-11-09T08:42:53;100608.03;;;14.68;72.29
6020;BME280;3038;51.122;6.840;2022-11-09T08:45:19;100603.19;;;14.78;71.71
6020;BME280;3038;51.122;6.840;2022-11-09T08:47:45;100609.63;;;14.84;71.50
6020;BME280;3038;51.122;6.840;2022-11-09T08:50:12;100609.88;;;14.89;71.04
6020;BME280;3038;51.122;6.840;2022-11-09T08:52:38;100609.31;;;14.94;70.89
6020;BME280;3038;51.122;6.840;2022-11-09T08:55:04;100614.34;;;15.03;70.15
6020;BME280;3038;51.122;6.840;2022-11-09T08:57:30;100613.19;;;15.12;69.57
6020;BME280;3038;51.122;6.840;2022-11-09T08:59:55;100614.97;;;15.27;69.28
6020;BME280;3038;51.122;6.840;2022-11-09T09:02:21;100621.81;;;15.36;68.43
6020;BME280;3038;51.122;6.840;2022-11-09T09:04:46;100613.75;;;15.29;68.44
6020;BME280;3038;51.122;6.840;2022-11-09T09:07:12;100623.22;;;15.32;67.37
6020;BME280;3038;51.122;6.840;2022-11-09T09:09:37;100617.94;;;15.38;68.01
6020;BME280;3038;51.122;6.840;2022-11-09T09:12:04;100620.47;;;15.47;68.70
6020;BME280;3038;51.122;6.840;2022-11-09T09:14:30;100633.34;;;15.58;68.88
6020;BME280;3038;51.122;6.840;2022-11-09T09:16:55;100623.03;;;15.61;68.74
6020;BME280;3038;51.122;6.840;2022-11-09T09:19:21;100632.19;;;15.67;68.00
6020;BME280;3038;51.122;6.840;2022-11-09T09:21:47;100624.09;;;15.88;67.55
6020;BME280;3038;51.122;6.840;2022-11-09T09:24:12;100620.84;;;16.00;66.02
6020;BME280;3038;51.122;6.840;2022-11-09T09:26:37;100623.53;;;16.48;64.40
6020;BME280;3038;51.122;6.840;2022-11-09T09:29:03;100617.88;;;18.55;59.30
6020;BME280;3038;51.122;6.840;2022-11-09T09:31:28;100618.72;;;19.93;54.54
6020;BME280;3038;51.122;6.840;2022-11-09T09:33:54;100622.16;;;20.56;53.02
6020;BME280;3038;51.122;6.840;2022-11-09T09:36:21;100624.22;;;20.72;52.45
6020;BME280;3038;51.122;6.840;2022-11-09T09:38:51;100630.47;;;20.84;51.88
6020;BME280;3038;51.122;6.840;2022-11-09T09:43:48;100646.03;;;20.34;52.61
6020;BME280;3038;51.122;6.840;2022-11-09T09:46:23;100641.56;;;19.41;53.74
6020;BME280;3038;51.122;6.840;2022-11-09T09:49:09;100644.44;;;19.14;54.74
6020;BME280;3038;51.122;6.840;2022-11-09T09:56:38;100660.50;;;17.46;57.85
6020;BME280;3038;51.122;6.840;2022-11-09T09:59:14;100661.25;;;17.01;58.72
6020;BME280;3038;51.122;6.840;2022-11-09T10:01:43;100665.75;;;16.80;59.61
6020;BME280;3038;51.122;6.840;2022-11-09T10:04:35;100660.66;;;17.05;55.99
6020;BME280;3038;51.122;6.840;2022-11-09T10:15:24;100669.94;;;17.16;54.45
6020;BME280;3038;51.122;6.840;2022-11-09T10:26:15;100679.66;;;17.24;54.61
6020;BME280;3038;51.122;6.840;2022-11-09T10:28:43;100679.13;;;17.75;53.35
6020;BME280;3038;51.122;6.840;2022-11-09T10:31:33;100689.31;;;18.37;51.11
6020;BME280;3038;51.122;6.840;2022-11-09T10:34:32;100689.38;;;19.14;49.90
6020;BME280;3038;51.122;6.840;2022-11-09T10:37:08;100689.91;;;18.97;50.21
6020;BME280;3038;51.122;6.840;2022-11-09T10:39:41;100687.50;;;18.11;51.14
6020;BME280;3038;51.122;6.840;2022-11-09T10:42:09;100685.69;;;17.85;52.26
6020;BME280;3038;51.122;6.840;2022-11-09T10:44:35;100686.47;;;18.19;51.45
6020;BME280;3038;51.122;6.840;2022-11-09T10:47:08;100685.22;;;18.86;49.91
6020;BME280;3038;51.122;6.840;2022-11-09T10:49:34;100690.91;;;19.03;49.19
6020;BME280;3038;51.122;6.840;2022-11-09T10:52:00;100700.72;;;18.84;49.65
6020;BME280;3038;51.122;6.840;2022-11-09T10:54:31;100688.59;;;19.07;48.65
6020;BME280;3038;51.122;6.840;2022-11-09T10:57:18;100698.31;;;20.14;45.29
6020;BME280;3038;51.122;6.840;2022-11-09T10:59:53;100688.09;;;21.20;43.75
6020;BME280;3038;51.122;6.840;2022-11-09T11:04:51;100692.56;;;21.68;42.66
6020;BME280;3038;51.122;6.840;2022-11-09T11:07:39;100696.75;;;20.25;45.81
6020;BME280;3038;51.122;6.840;2022-11-09T11:12:39;100709.34;;;20.68;44.86
6020;BME280;3038;51.122;6.840;2022-11-09T11:15:22;100700.84;;;20.83;44.46
6020;BME280;3038;51.122;6.840;2022-11-09T11:17:48;100698.25;;;20.39;45.19
6020;BME280;3038;51.122;6.840;2022-11-09T11:23:20;100692.59;;;20.96;43.47
6020;BME280;3038;51.122;6.840;2022-11-09T11:28:43;100698.66;;;19.49;46.05
6020;BME280;3038;51.122;6.840;2022-11-09T11:31:17;100695.72;;;19.26;46.56
6020;BME280;3038;51.122;6.840;2022-11-09T11:33:43;100691.06;;;19.15;45.87
6020;BME280;3038;51.122;6.840;2022-11-09T11:36:31;100690.69;;;19.68;45.92
6020;BME280;3038;51.122;6.840;2022-11-09T11:39:12;100696.63;;;20.57;43.56
6020;BME280;3038;51.122;6.840;2022-11-09T11:44:45;100692.34;;;20.97;42.38
6020;BME280;3038;51.122;6.840;2022-11-09T11:52:50;100688.41;;;22.47;39.35
6020;BME280;3038;51.122;6.840;2022-11-09T12:00:48;100701.09;;;21.11;41.47
6020;BME280;3038;51.122;6.840;2022-11-09T12:03:30;100702.06;;;20.87;41.66
6020;BME280;3038;51.122;6.840;2022-11-09T12:17:43;100699.94;;;17.99;47.13
6020;BME280;3038;51.122;6.840;2022-11-09T12:23:16;100704.69;;;17.97;48.45
6020;BME280;3038;51.122;6.840;2022-11-09T12:26:22;100715.06;;;17.80;49.47
6020;BME280;3038;51.122;6.840;2022-11-09T12:37:35;100711.53;;;17.73;48.09
6020;BME280;3038;51.122;6.840;2022-11-09T12:40:30;100714.56;;;17.17;48.88
6020;BME280;3038;51.122;6.840;2022-11-09T12:43:01;100704.53;;;16.84;50.07
6020;BME280;3038;51.122;6.840;2022-11-09T12:45:33;100715.75;;;16.60;51.13
6020;BME280;3038;51.122;6.840;2022-11-09T12:50:45;100717.56;;;16.53;51.83
6020;BME280;3038;51.122;6.840;2022-11-09T12:53:11;100716.38;;;16.62;51.55
6020;BME280;3038;51.122;6.840;2022-11-09T12:55:49;100721.44;;;16.78;51.35
6020;BME280;3038;51.122;6.840;2022-11-09T12:58:24;100718.25;;;16.68;51.86
6020;BME280;3038;51.122;6.840;2022-11-09T13:00:56;100722.19;;;16.65;52.20
6020;BME280;3038;51.122;6.840;2022-11-09T13:03:25;100721.59;;;16.70;52.03
6020;BME280;3038;51.122;6.840;2022-11-09T13:06:16;100721.34;;;16.65;52.05
6020;BME280;3038;51.122;6.840;2022-11-09T13:09:34;100723.66;;;16.33;52.89
6020;BME280;3038;51.122;6.840;2022-11-09T13:11:52;100723.34;;;16.15;53.10
6020;BME280;3038;51.122;6.840;2022-11-09T13:16:57;100729.25;;;16.04;54.11
6020;BME280;3038;51.122;6.840;2022-11-09T13:25:01;100719.19;;;18.74;47.75
6020;BME280;3038;51.122;6.840;2022-11-09T13:27:42;100732.34;;;17.64;49.37
6020;BME280;3038;51.122;6.840;2022-11-09T13:38:24;100736.47;;;17.54;50.75
6020;BME280;3038;51.122;6.840;2022-11-09T13:40:57;100739.59;;;17.51;50.35
6020;BME280;3038;51.122;6.840;2022-11-09T13:43:29;100728.78;;;17.17;50.97
6020;BME280;3038;51.122;6.840;2022-11-09T13:46:21;100742.47;;;16.81;52.42
6020;BME280;3038;51.122;6.840;2022-11-09T13:48:48;100742.34;;;16.55;53.84
6020;BME280;3038;51.122;6.840;2022-11-09T13:51:17;100761.88;;;16.49;54.24
6020;BME280;3038;51.122;6.840;2022-11-09T13:53:52;100752.50;;;16.31;53.84
6020;BME280;3038;51.122;6.840;2022-11-09T13:56:21;100747.94;;;16.25;53.71
6020;BME280;3038;51.122;6.840;2022-11-09T13:58:48;100747.47;;;16.15;54.28
6020;BME280;3038;51.122;6.840;2022-11-09T14:01:31;100744.59;;;16.16;54.63
6020;BME280;3038;51.122;6.840;2022-11-09T14:03:57;100742.50;;;16.12;53.96
6020;BME280;3038;51.122;6.840;2022-11-09T14:06:24;100757.78;;;16.18;54.53
6020;BME280;3038;51.122;6.840;2022-11-09T14:08:52;100748.53;;;16.21;53.98
6020;BME280;3038;51.122;6.840;2022-11-09T14:17:20;100769.47;;;16.10;55.46
6020;BME280;3038;51.122;6.840;2022-11-09T14:20:17;100767.06;;;15.94;55.24
6020;BME280;3038;51.122;6.840;2022-11-09T14:22:46;100766.56;;;15.84;55.19
6020;BME280;3038;51.122;6.840;2022-11-09T14:25:19;100766.28;;;15.72;55.76
6020;BME280;3038;51.122;6.840;2022-11-09T14:27:48;100772.28;;;15.59;56.12
6020;BME280;3038;51.122;6.840;2022-11-09T14:30:29;100765.03;;;15.53;56.83
6020;BME280;3038;51.122;6.840;2022-11-09T14:32:56;100777.22;;;15.77;56.35
6020;BME280;3038;51.122;6.840;2022-11-09T14:35:35;100780.53;;;15.79;56.05
6020;BME280;3038;51.122;6.840;2022-11-09T14:38:17;100781.69;;;15.70;56.78
6020;BME280;3038;51.122;6.840;2022-11-09T14:40:44;100787.53;;;15.59;57.38
6020;BME280;3038;51.122;6.840;2022-11-09T14:43:24;100792.63;;;15.54;57.39
6020;BME280;3038;51.122;6.840;2022-11-09T14:45:52;100787.38;;;15.46;57.11
6020;BME280;3038;51.122;6.840;2022-11-09T14:48:20;100785.47;;;15.39;57.71
6020;BME280;3038;51.122;6.840;2022-11-09T14:50:46;100787.31;;;15.39;57.74
6020;BME280;3038;51.122;6.840;2022-11-09T14:53:26;100784.19;;;15.35;58.48
6020;BME280;3038;51.122;6.840;2022-11-09T14:55:54;100786.97;;;15.27;58.12